createdAt,value
2017-08-21T00:01:22.880Z,101348.00
2017-08-21T00:03:54.984Z,101347.72
2017-08-21T00:06:27.300Z,101342.55
2017-08-21T00:08:58.942Z,101346.61
2017-08-21T00:11:31.408Z,101355.19
2017-08-21T00:14:04.594Z,101353.90
2017-08-21T00:16:36.521Z,101356.05
2017-08-21T00:19:07.868Z,101357.09
2017-08-21T00:21:39.496Z,101341.32
2017-08-21T00:24:14.378Z,101341.06
2017-08-21T00:26:45.900Z,101340.45
2017-08-21T00:29:18.244Z,101343.35
2017-08-21T00:31:50.357Z,101344.21
2017-08-21T00:34:22.874Z,101338.77
2017-08-21T00:36:54.309Z,101334.38
2017-08-21T00:39:26.187Z,101328.64
2017-08-21T00:41:57.831Z,101331.86
2017-08-21T00:44:29.349Z,101323.31
2017-08-21T00:47:01.034Z,101318.43
2017-08-21T00:49:33.252Z,101318.98
2017-08-21T00:52:06.351Z,101317.44
2017-08-21T00:54:38.357Z,101326.02
2017-08-21T00:57:10.157Z,101323.91
2017-08-21T00:59:41.736Z,101321.79
2017-08-21T01:02:13.807Z,101317.84
2017-08-21T01:04:45.939Z,101321.04
2017-08-21T01:07:18.769Z,101315.30
2017-08-21T01:09:50.472Z,101320.64
2017-08-21T01:12:22.736Z,101343.61
2017-08-21T01:14:54.339Z,101345.81
2017-08-21T01:17:28.539Z,101343.48
2017-08-21T01:20:00.355Z,101343.23
2017-08-21T01:22:32.648Z,101346.92
2017-08-21T01:25:04.812Z,101338.74
2017-08-21T01:27:36.455Z,101327.08
2017-08-21T01:30:09.743Z,101298.45
2017-08-21T01:32:42.067Z,101281.07
2017-08-21T01:35:14.596Z,101298.39
2017-08-21T01:37:46.774Z,101315.83
2017-08-21T01:40:19.556Z,101330.97
2017-08-21T01:42:51.336Z,101347.75
2017-08-21T01:45:25.020Z,101342.69
2017-08-21T01:47:56.548Z,101331.36
2017-08-21T01:50:28.073Z,101331.36
2017-08-21T01:53:00.364Z,101324.08
2017-08-21T01:55:31.798Z,101314.55
2017-08-21T01:58:04.433Z,101314.44
2017-08-21T02:00:36.321Z,101318.85
2017-08-21T02:03:07.907Z,101323.37
2017-08-21T02:05:40.247Z,101315.48
2017-08-21T02:10:53.106Z,101307.73
2017-08-21T02:13:25.561Z,101308.78
2017-08-21T02:15:57.795Z,101303.17
2017-08-21T02:18:31.135Z,101304.04
2017-08-21T02:21:04.070Z,101297.04
2017-08-21T02:23:37.254Z,101297.00
2017-08-21T02:26:09.058Z,101297.28
2017-08-21T02:28:40.772Z,101308.22
2017-08-21T02:31:12.146Z,101319.50
2017-08-21T02:33:43.665Z,101324.04
2017-08-21T02:36:15.531Z,101315.95
2017-08-21T02:38:48.430Z,101319.39
2017-08-21T02:41:21.572Z,101324.27
2017-08-21T02:43:52.944Z,101336.84
2017-08-21T02:46:24.649Z,101330.91
2017-08-21T02:48:56.347Z,101330.80
2017-08-21T02:51:27.736Z,101339.19
2017-08-21T02:53:59.396Z,101341.70
2017-08-21T02:56:31.804Z,101326.72
2017-08-21T02:59:04.241Z,101309.77
2017-08-21T03:01:37.959Z,101308.22
2017-08-21T03:04:09.499Z,101310.41
2017-08-21T03:06:41.548Z,101302.95
2017-08-21T03:09:13.180Z,101311.09
2017-08-21T03:11:44.611Z,101320.50
2017-08-21T03:17:14.225Z,101305.20
2017-08-21T03:19:46.921Z,101309.86
2017-08-21T03:22:20.057Z,101303.60
2017-08-21T03:24:52.676Z,101302.34
2017-08-21T03:27:24.341Z,101289.59
2017-08-21T03:29:55.734Z,101292.28
2017-08-21T03:32:27.074Z,101283.78
2017-08-21T03:34:59.114Z,101278.02
2017-08-21T03:37:30.885Z,101279.14
2017-08-21T03:40:06.002Z,101282.41
2017-08-21T03:42:37.859Z,101286.48
2017-08-21T03:45:09.536Z,101287.95
2017-08-21T03:47:41.083Z,101292.16
2017-08-21T03:50:14.503Z,101281.83
2017-08-21T03:52:46.517Z,101287.85
2017-08-21T03:55:20.475Z,101281.59
2017-08-21T03:57:51.869Z,101293.72
2017-08-21T04:00:23.807Z,101301.03
2017-08-21T04:02:55.201Z,101298.63
2017-08-21T04:05:26.763Z,101294.61
2017-08-21T04:07:58.454Z,101301.41
2017-08-21T04:10:29.852Z,101302.44
2017-08-21T04:13:01.742Z,101304.59
2017-08-21T04:15:33.092Z,101307.56
2017-08-21T04:18:08.050Z,101308.13
2017-08-21T04:20:39.694Z,101308.79
2017-08-21T04:23:11.042Z,101310.68
2017-08-21T04:25:42.391Z,101324.13
2017-08-21T04:28:14.590Z,101325.05
2017-08-21T04:30:46.009Z,101327.73
2017-08-21T04:33:21.841Z,101334.86
2017-08-21T04:35:53.197Z,101330.05
2017-08-21T04:38:24.885Z,101334.16
2017-08-21T04:40:56.278Z,101333.89
2017-08-21T04:43:28.946Z,101328.10
2017-08-21T04:46:00.407Z,101324.00
2017-08-21T04:48:31.804Z,101316.88
2017-08-21T04:51:06.438Z,101313.13
2017-08-21T04:53:37.827Z,101320.08
2017-08-21T04:56:09.222Z,101320.25
2017-08-21T04:58:40.881Z,101317.70
2017-08-21T05:01:12.223Z,101314.98
2017-08-21T05:03:43.571Z,101322.88
2017-08-21T05:06:17.935Z,101318.27
2017-08-21T05:08:49.654Z,101317.64
2017-08-21T05:11:22.785Z,101320.48
2017-08-21T05:13:54.512Z,101319.59
2017-08-21T05:16:26.647Z,101313.53
2017-08-21T05:18:58.292Z,101317.83
2017-08-21T05:21:37.551Z,101323.33
2017-08-21T05:24:09.775Z,101328.55
2017-08-21T05:26:42.501Z,101325.78
2017-08-21T05:29:14.149Z,101327.41
2017-08-21T05:31:45.544Z,101342.87
2017-08-21T05:34:17.993Z,101331.01
2017-08-21T05:36:50.714Z,101339.08
2017-08-21T05:39:23.581Z,101332.54
2017-08-21T05:41:54.936Z,101337.29
2017-08-21T05:44:26.795Z,101327.86
2017-08-21T05:47:10.223Z,101326.89
2017-08-21T05:49:41.580Z,101338.18
2017-08-21T05:52:14.211Z,101343.62
2017-08-21T05:54:45.761Z,101344.05
2017-08-21T05:57:19.533Z,101336.34
2017-08-21T05:59:51.291Z,101343.17
2017-08-21T06:02:23.639Z,101344.27
2017-08-21T06:08:02.665Z,101342.91
2017-08-21T06:10:34.833Z,101343.84
2017-08-21T06:13:06.752Z,101346.04
2017-08-21T06:15:38.591Z,101353.56
2017-08-21T06:18:10.820Z,101344.12
2017-08-21T06:20:42.491Z,101343.31
2017-08-21T06:23:14.816Z,101344.38
2017-08-21T06:25:47.333Z,101346.56
2017-08-21T06:28:19.443Z,101346.84
2017-08-21T06:30:51.140Z,101351.06
2017-08-21T06:33:22.608Z,101357.34
2017-08-21T06:35:54.143Z,101355.77
2017-08-21T06:38:25.806Z,101355.65
2017-08-21T06:40:57.133Z,101355.27
2017-08-21T06:43:32.888Z,101352.73
2017-08-21T06:46:06.082Z,101351.94
2017-08-21T06:48:37.830Z,101355.82
2017-08-21T06:51:09.419Z,101358.52
2017-08-21T06:53:41.155Z,101352.08
2017-08-21T06:56:13.724Z,101352.64
2017-08-21T06:58:47.029Z,101347.35
2017-08-21T07:01:18.626Z,101350.06
2017-08-21T07:03:50.020Z,101356.80
2017-08-21T07:06:21.653Z,101349.03
2017-08-21T07:08:53.151Z,101345.36
2017-08-21T07:14:39.263Z,101340.90
2017-08-21T07:17:11.037Z,101338.66
2017-08-21T07:19:42.790Z,101332.95
2017-08-21T07:22:14.321Z,101331.04
2017-08-21T07:24:47.737Z,101333.61
2017-08-21T07:27:19.213Z,101327.44
2017-08-21T07:29:50.996Z,101326.86
2017-08-21T07:32:22.657Z,101327.95
2017-08-21T07:34:55.023Z,101328.92
2017-08-21T07:37:26.397Z,101332.53
2017-08-21T07:39:57.803Z,101332.59
2017-08-21T07:42:30.083Z,101328.84
2017-08-21T07:45:01.517Z,101327.67
2017-08-21T07:47:32.958Z,101324.28
2017-08-21T07:50:05.506Z,101322.64
2017-08-21T07:52:37.121Z,101325.13
2017-08-21T07:55:08.521Z,101327.37
2017-08-21T07:57:39.975Z,101324.58
2017-08-21T08:00:11.709Z,101329.98
2017-08-21T08:02:43.805Z,101323.50
2017-08-21T08:05:15.547Z,101322.77
2017-08-21T08:07:47.142Z,101321.31
2017-08-21T08:10:18.619Z,101319.98
2017-08-21T08:12:50.466Z,101321.54
2017-08-21T08:15:21.873Z,101323.09
2017-08-21T08:17:53.622Z,101327.20
2017-08-21T08:20:25.001Z,101324.32
2017-08-21T08:22:57.568Z,101318.91
2017-08-21T08:25:29.988Z,101326.13
2017-08-21T08:28:01.953Z,101325.75
2017-08-21T08:30:33.741Z,101329.57
2017-08-21T08:33:05.147Z,101328.55
2017-08-21T08:35:37.050Z,101323.96
2017-08-21T08:38:08.672Z,101328.98
2017-08-21T08:40:40.469Z,101332.81
2017-08-21T08:43:12.367Z,101334.16
2017-08-21T08:45:43.914Z,101335.23
2017-08-21T08:48:15.799Z,101332.00
2017-08-21T08:50:48.508Z,101323.66
2017-08-21T08:53:19.933Z,101320.50
2017-08-21T08:55:51.720Z,101312.47
2017-08-21T08:58:23.327Z,101317.12
2017-08-21T09:00:54.815Z,101319.48
2017-08-21T09:03:27.609Z,101325.44
2017-08-21T09:05:59.822Z,101325.08
2017-08-21T09:08:31.573Z,101320.81
2017-08-21T09:11:05.477Z,101315.22
2017-08-21T09:13:37.166Z,101320.78
2017-08-21T09:16:08.850Z,101312.58
2017-08-21T09:21:18.247Z,101318.88
2017-08-21T09:23:50.199Z,101323.77
2017-08-21T09:26:21.536Z,101322.58
2017-08-21T09:28:54.269Z,101324.73
2017-08-21T09:31:25.716Z,101331.03
2017-08-21T09:33:57.481Z,101321.18
2017-08-21T09:36:29.260Z,101321.02
2017-08-21T09:39:01.020Z,101324.16
2017-08-21T09:41:32.447Z,101326.45
2017-08-21T09:44:05.007Z,101318.30
2017-08-21T09:46:36.468Z,101326.36
2017-08-21T09:49:07.896Z,101323.53
2017-08-21T09:51:39.811Z,101321.20
2017-08-21T09:54:11.259Z,101317.47
2017-08-21T09:56:43.066Z,101308.45
2017-08-21T09:59:14.516Z,101308.44
2017-08-21T10:01:46.664Z,101307.86
2017-08-21T10:04:18.452Z,101306.38
2017-08-21T10:06:50.230Z,101300.24
2017-08-21T10:09:21.855Z,101305.56
2017-08-21T10:11:53.688Z,101298.11
2017-08-21T10:14:25.490Z,101302.83
2017-08-21T10:16:56.952Z,101300.42
2017-08-21T10:19:28.496Z,101291.73
2017-08-21T10:22:00.445Z,101299.78
2017-08-21T10:24:31.866Z,101303.92
2017-08-21T10:27:03.917Z,101304.14
2017-08-21T10:29:35.239Z,101300.45
2017-08-21T10:32:06.968Z,101298.94
2017-08-21T10:34:38.313Z,101308.05
2017-08-21T10:37:09.646Z,101298.02
2017-08-21T10:39:41.311Z,101282.64
2017-08-21T10:42:12.683Z,101281.33
2017-08-21T10:44:45.026Z,101290.02
2017-08-21T10:47:16.893Z,101289.42
2017-08-21T10:49:49.257Z,101279.25
2017-08-21T10:52:20.766Z,101282.83
2017-08-21T10:54:52.625Z,101287.94
2017-08-21T10:57:24.127Z,101276.39
2017-08-21T10:59:55.656Z,101274.47
2017-08-21T11:02:27.416Z,101260.97
2017-08-21T11:04:58.826Z,101272.13
2017-08-21T11:07:30.698Z,101270.17
2017-08-21T11:10:03.256Z,101257.39
2017-08-21T11:12:34.672Z,101256.14
2017-08-21T11:15:06.224Z,101262.30
2017-08-21T11:17:37.903Z,101261.38
2017-08-21T11:20:09.486Z,101257.49
2017-08-21T11:22:41.192Z,101254.63
2017-08-21T11:25:12.561Z,101249.31
2017-08-21T11:27:44.030Z,101244.46
2017-08-21T11:30:15.669Z,101247.88
2017-08-21T11:32:47.909Z,101245.79
2017-08-21T11:35:19.256Z,101248.48
2017-08-21T11:37:51.089Z,101239.58
2017-08-21T11:40:22.682Z,101240.33
2017-08-21T11:42:54.196Z,101240.94
2017-08-21T11:45:25.862Z,101246.38
2017-08-21T11:47:57.353Z,101228.08
2017-08-21T11:50:29.020Z,101222.94
2017-08-21T11:53:00.909Z,101220.84
2017-08-21T11:55:33.570Z,101221.36
2017-08-21T11:58:05.847Z,101211.34
2017-08-21T12:00:37.299Z,101219.22
2017-08-21T12:03:08.885Z,101212.41
2017-08-21T12:05:41.120Z,101207.30
2017-08-21T12:08:13.233Z,101207.79
2017-08-21T12:10:45.972Z,101208.97
2017-08-21T12:13:17.427Z,101198.37
2017-08-21T12:15:48.734Z,101196.59
2017-08-21T12:18:20.347Z,101201.19
2017-08-21T12:20:51.792Z,101196.14
2017-08-21T12:23:23.170Z,101196.39
2017-08-21T12:25:54.800Z,101194.52
2017-08-21T12:28:26.169Z,101191.05
2017-08-21T12:30:57.866Z,101191.73
2017-08-21T12:33:29.189Z,101196.26
2017-08-21T12:36:00.597Z,101184.84
2017-08-21T12:38:31.928Z,101183.30
2017-08-21T12:41:03.311Z,101183.55
2017-08-21T12:43:34.702Z,101187.28
2017-08-21T12:46:06.365Z,101175.05
2017-08-21T12:48:37.695Z,101161.83
2017-08-21T12:51:09.300Z,101168.50
2017-08-21T12:53:40.618Z,101165.02
2017-08-21T12:56:11.931Z,101168.12
2017-08-21T12:58:44.151Z,101169.30
2017-08-21T13:01:15.520Z,101164.15
2017-08-21T13:03:47.603Z,101155.90
2017-08-21T13:06:19.356Z,101164.79
2017-08-21T13:08:50.715Z,101156.23
2017-08-21T13:11:22.025Z,101151.53
2017-08-21T13:13:53.810Z,101154.66
2017-08-21T13:16:25.123Z,101152.88
2017-08-21T13:18:56.542Z,101151.63
2017-08-21T13:21:28.186Z,101151.72
2017-08-21T13:23:59.529Z,101155.55
2017-08-21T13:26:31.102Z,101155.25
2017-08-21T13:29:02.522Z,101153.59
2017-08-21T13:31:33.846Z,101156.70
2017-08-21T13:34:06.331Z,101157.31
2017-08-21T13:36:37.696Z,101155.37
2017-08-21T13:39:09.010Z,101143.02
2017-08-21T13:41:40.816Z,101134.48
2017-08-21T13:44:12.145Z,101138.82
2017-08-21T13:46:43.949Z,101130.67
2017-08-21T13:49:15.255Z,101122.09
2017-08-21T13:51:47.330Z,101129.89
2017-08-21T13:54:18.677Z,101128.65
2017-08-21T13:56:49.996Z,101125.78
2017-08-21T13:59:21.635Z,101118.95
2017-08-21T14:01:52.949Z,101129.66
2017-08-21T14:07:29.692Z,101128.51
2017-08-21T14:10:05.657Z,101129.53
2017-08-21T14:12:39.967Z,101125.64
2017-08-21T14:15:20.622Z,101118.73
2017-08-21T14:17:53.177Z,101119.89
2017-08-21T14:20:27.718Z,101122.57
2017-08-21T14:23:03.446Z,101123.73
2017-08-21T14:25:53.812Z,101114.80
2017-08-21T14:28:38.575Z,101105.23
2017-08-21T14:31:24.482Z,101098.91
2017-08-21T14:34:03.185Z,101107.13
2017-08-21T14:36:48.106Z,101103.39
2017-08-21T14:39:21.916Z,101101.59
2017-08-21T14:41:55.305Z,101101.81
2017-08-21T14:44:27.833Z,101095.03
2017-08-21T14:47:01.082Z,101100.52
2017-08-21T14:49:38.904Z,101102.77
2017-08-21T14:52:11.450Z,101102.59
2017-08-21T14:54:45.286Z,101097.09
2017-08-21T14:57:20.678Z,101093.48
2017-08-21T15:07:26.458Z,101107.00
2017-08-21T15:10:25.273Z,101106.45
2017-08-21T15:36:09.651Z,101100.61
2017-08-21T15:38:41.133Z,101099.16
2017-08-21T15:41:12.788Z,101095.51
2017-08-21T15:43:44.897Z,101100.23
2017-08-21T15:46:19.728Z,101098.59
2017-08-21T15:48:51.437Z,101082.27
2017-08-21T15:51:23.697Z,101087.92
2017-08-21T15:53:55.289Z,101094.78
2017-08-21T15:56:27.247Z,101089.17
2017-08-21T15:58:59.408Z,101093.06
2017-08-21T16:01:32.557Z,101092.87
2017-08-21T16:04:06.217Z,101091.34
2017-08-21T16:06:37.705Z,101092.03
2017-08-21T16:09:10.333Z,101085.35
2017-08-21T16:11:41.740Z,101084.73
2017-08-21T16:14:13.135Z,101089.98
2017-08-21T16:19:45.146Z,101099.75
2017-08-21T16:22:16.881Z,101089.58
2017-08-21T16:27:47.732Z,101089.66
2017-08-21T16:30:19.412Z,101090.21
2017-08-21T16:32:51.139Z,101084.20
2017-08-21T16:35:23.912Z,101081.65
2017-08-21T16:37:55.510Z,101081.08
2017-08-21T16:40:27.279Z,101075.23
2017-08-21T16:42:59.163Z,101080.27
2017-08-21T16:45:30.716Z,101084.66
2017-08-21T16:48:04.378Z,101073.43
2017-08-21T16:50:35.925Z,101070.50
2017-08-21T16:56:21.136Z,101058.59
2017-08-21T17:04:54.551Z,101062.09
2017-08-21T17:13:25.725Z,101072.59
2017-08-21T17:15:57.115Z,101071.63
2017-08-21T17:18:28.546Z,101080.17
2017-08-21T17:21:00.400Z,101077.50
2017-08-21T17:35:37.243Z,101074.68
2017-08-21T17:38:09.717Z,101098.02
2017-08-21T17:43:45.737Z,101102.06
2017-08-21T17:46:19.396Z,101099.52
2017-08-21T17:48:53.741Z,101104.56
2017-08-21T17:51:25.711Z,101102.68
2017-08-21T17:53:59.066Z,101103.98
2017-08-21T17:56:30.651Z,101103.82
2017-08-21T17:59:12.695Z,101101.73
2017-08-21T18:01:45.729Z,101104.09
2017-08-21T18:04:19.309Z,101101.72
2017-08-21T18:06:57.155Z,101104.77
2017-08-21T18:09:29.162Z,101104.03
2017-08-21T18:12:01.797Z,101097.73
2017-08-21T18:14:34.943Z,101099.55
2017-08-21T18:17:06.378Z,101104.08
2017-08-21T18:19:38.008Z,101097.52
2017-08-21T18:22:09.635Z,101099.86
2017-08-21T18:24:41.340Z,101105.20
2017-08-21T18:27:12.703Z,101109.58
2017-08-21T18:29:44.182Z,101106.42
2017-08-21T18:32:15.883Z,101110.97
2017-08-21T18:34:48.091Z,101115.45
2017-08-21T18:37:22.430Z,101110.91
2017-08-21T18:39:54.288Z,101116.16
2017-08-21T18:42:25.921Z,101110.31
2017-08-21T18:44:57.298Z,101113.72
2017-08-21T18:47:28.927Z,101116.00
2017-08-21T18:50:00.607Z,101119.41
2017-08-21T18:52:32.312Z,101122.67
2017-08-21T18:55:09.229Z,101125.12
2017-08-21T19:00:45.823Z,101141.94
2017-08-21T19:03:17.400Z,101139.51
2017-08-21T19:05:49.112Z,101144.90
2017-08-21T19:08:22.477Z,101139.56
2017-08-21T19:10:54.248Z,101143.86
2017-08-21T19:13:25.927Z,101147.34
2017-08-21T19:18:54.249Z,101142.71
2017-08-21T19:21:31.215Z,101135.50
2017-08-21T19:24:03.450Z,101139.41
2017-08-21T19:26:39.178Z,101134.31
2017-08-21T19:29:10.774Z,101137.12
2017-08-21T19:34:49.568Z,101130.98
2017-08-21T19:37:21.641Z,101132.41
2017-08-21T19:39:53.624Z,101135.08
2017-08-21T19:42:24.986Z,101136.13
2017-08-21T19:44:56.624Z,101128.87
2017-08-21T19:47:28.046Z,101129.86
2017-08-21T19:49:59.507Z,101137.28
2017-08-21T19:52:31.289Z,101128.27
2017-08-21T19:55:03.295Z,101132.51
2017-08-21T19:57:34.698Z,101133.50
2017-08-21T20:00:12.896Z,101132.41
2017-08-21T20:02:46.740Z,101135.58
2017-08-21T20:05:19.754Z,101131.52
2017-08-21T20:07:51.477Z,101133.69
2017-08-21T20:10:24.325Z,101133.48
2017-08-21T20:12:57.286Z,101140.00
2017-08-21T20:15:28.931Z,101140.71
2017-08-21T20:18:00.786Z,101139.64
2017-08-21T20:20:33.482Z,101139.63
2017-08-21T20:26:18.591Z,101133.75
2017-08-21T20:28:50.212Z,101127.80
2017-08-21T20:31:21.753Z,101125.63
2017-08-21T20:33:53.445Z,101126.42
2017-08-21T20:36:25.868Z,101125.45
2017-08-21T20:38:57.578Z,101131.09
2017-08-21T20:41:28.925Z,101127.52
2017-08-21T20:44:00.353Z,101124.08
2017-08-21T20:46:32.894Z,101122.42
2017-08-21T20:49:04.548Z,101119.29
2017-08-21T20:51:36.235Z,101125.03
2017-08-21T20:54:07.789Z,101126.85
2017-08-21T20:56:39.208Z,101126.61
2017-08-21T20:59:11.288Z,101124.25
2017-08-21T21:01:42.709Z,101124.73
2017-08-21T21:04:17.448Z,101125.89
2017-08-21T21:06:54.132Z,101124.44
2017-08-21T21:09:26.528Z,101131.58
2017-08-21T21:11:57.963Z,101129.19
2017-08-21T21:14:29.423Z,101129.62
2017-08-21T21:17:01.400Z,101135.42
2017-08-21T21:19:32.891Z,101130.75
2017-08-21T21:22:06.333Z,101133.19
2017-08-21T21:27:42.954Z,101143.26
2017-08-21T21:30:15.282Z,101143.86
2017-08-21T21:32:47.306Z,101147.39
2017-08-21T21:35:18.655Z,101139.35
2017-08-21T21:37:50.067Z,101143.27
2017-08-21T21:40:21.961Z,101146.53
2017-08-21T21:42:53.357Z,101143.56
2017-08-21T21:45:24.720Z,101145.53
2017-08-21T21:47:56.868Z,101140.89
2017-08-21T21:50:28.691Z,101142.02
2017-08-21T21:53:00.310Z,101140.12
2017-08-21T21:55:32.897Z,101138.70
2017-08-21T21:58:05.540Z,101142.89
2017-08-21T22:00:37.408Z,101145.34
2017-08-21T22:03:08.794Z,101142.42
2017-08-21T22:05:40.500Z,101141.43
2017-08-21T22:08:11.884Z,101141.72
2017-08-21T22:10:43.258Z,101138.33
2017-08-21T22:13:15.046Z,101146.55
2017-08-21T22:15:46.501Z,101146.30
2017-08-21T22:18:17.879Z,101144.36
2017-08-21T22:20:49.590Z,101147.82
2017-08-21T22:23:20.938Z,101145.99
2017-08-21T22:25:52.706Z,101145.68
2017-08-21T22:28:24.356Z,101140.27
2017-08-21T22:30:55.678Z,101148.08
2017-08-21T22:33:27.484Z,101143.30
2017-08-21T22:35:58.852Z,101150.36
2017-08-21T22:38:31.423Z,101146.99
2017-08-21T22:41:03.677Z,101146.47
2017-08-21T22:43:35.366Z,101151.09
2017-08-21T22:46:06.762Z,101150.78
2017-08-21T22:48:38.620Z,101152.02
2017-08-21T22:51:10.068Z,101144.02
2017-08-21T22:53:41.986Z,101151.11
2017-08-21T22:56:17.271Z,101136.70
2017-08-21T22:58:48.965Z,101132.60
2017-08-21T23:01:21.037Z,101128.12
2017-08-21T23:03:53.681Z,101134.31
2017-08-21T23:06:25.120Z,101132.13
2017-08-21T23:08:56.715Z,101126.94
2017-08-21T23:11:28.169Z,101122.73
2017-08-21T23:13:59.514Z,101112.64
2017-08-21T23:16:32.605Z,101108.43
2017-08-21T23:19:04.258Z,101103.83
2017-08-21T23:21:36.433Z,101110.36
2017-08-21T23:24:07.789Z,101117.23
2017-08-21T23:26:39.201Z,101113.41
2017-08-21T23:29:16.090Z,101118.61
2017-08-21T23:31:47.449Z,101112.56
2017-08-21T23:34:19.179Z,101108.14
2017-08-21T23:36:50.568Z,101114.13
2017-08-21T23:39:23.213Z,101109.75
2017-08-21T23:41:54.682Z,101111.72
2017-08-21T23:44:26.150Z,101123.33
2017-08-21T23:46:57.935Z,101124.73
2017-08-21T23:49:31.389Z,101123.45
2017-08-21T23:52:05.114Z,101125.24
2017-08-21T23:54:36.566Z,101126.80
2017-08-21T23:57:08.199Z,101119.03
2017-08-21T23:59:40.132Z,101120.32
